x

South Moresby (46147) Wave Buoy

9:00pm - Sat 31st Jan 2015 All times are PST. -8 hours from GMT.

  • Sig Wave height 7.2ft
  • Peak Period 6s
  • Wind
    29mph, 34mph gusts
  • Sea Temp 50°f
  • Air Temp 50°f
  • Sea Pressure 1010.5mb
  • South Moresby
  • South Moresby

More Historic Weather Station data

Upgrade to MSW Pro to gain access to the past 30 days of data for over 8000 Wavebouys and Weather Stations around the globe.

Join Pro

Comparision Forecast

View Surf forecast
   
Sat 01/31 9:00pm 7ft 6s 29 34 mph 1010.5mb 50f 50f
8:00pm 6ft 5s 27 36 mph 1010.8mb 50f 50f
7:00pm 5.5ft 5s 25 29 mph 1012.1mb 50f 50f
6:00pm 5.5ft 5s 22 27 mph 1013.6mb 50f 49f
5:00pm 5ft 8s 25 29 mph 1014.5mb 50f 49f
4:00pm 5ft 5s 20 25 mph 1016mb 50f 49f
2:00pm 5ft 13s 20 25 mph 1018mb 50f 49f
1:00pm 5ft 13s 20 25 mph 1019.3mb 50f 49f
12:00pm 4.5ft 12s 22 27 mph 1019.3mb 50f 49f
11:00am 4.5ft 12s 18 22 mph 1020.2mb 50f 49f
10:00am 4.5ft 12s 18 20 mph 1020.5mb 50f 49f
9:00am 4.5ft 13s 16 20 mph 1020.7mb 50f 48f
8:00am 4.5ft 13s 16 18 mph 1021.6mb 50f 47f
7:00am 4.5ft 12s 16 22 mph 1021.6mb 50f 46f
6:00am 4.5ft 13s 13 18 mph 1022.6mb 50f 46f
5:00am 5ft 12s 16 18 mph 1022.7mb 50f 46f
4:00am 5ft 13s 16 18 mph 1023mb 50f 45f
3:00am 5ft 14s 16 20 mph 1023.8mb 50f 45f
2:00am 6ft 13s 18 22 mph 1024.2mb 50f 45f
1:00am 5.5ft 14s 18 22 mph 1024.2mb 50f 46f
12:00am 5.5ft 13s 20 25 mph 1024.5mb 50f 47f
Fri 01/30 11:00pm 6ft 14s 18 25 mph 1025mb 50f 47f
10:00pm 6ft 13s 16 20 mph 1025.4mb 50f 48f
9:00pm 6ft 12s 16 22 mph 1025.3mb 49f 47f
8:00pm 6ft 13s 11 16 mph 1025.2mb 49f 48f
7:00pm 6.5ft 14s 2 4 mph 1025.6mb 49f 48f
6:00pm 6.5ft 12s 2 4 mph 1025.6mb 50f 48f
5:00pm 6ft 13s 7 9 mph 1025.6mb 50f 48f
4:00pm 7ft 13s 9 13 mph 1024.8mb 50f 49f
3:00pm 7ft 14s 7 9 mph 1024.6mb 50f 48f
2:00pm 7ft 12s 4 9 mph 1024.7mb 50f 49f
1:00pm 7ft 14s 4 9 mph 1024.4mb 50f 47f
12:00pm 7ft 14s 7 9 mph 1023.8mb 50f 47f
11:00am 7.5ft 13s 9
mph
1023mb 50f 47f
10:00am 7.5ft 14s 4 7 mph 1022mb 50f 47f
9:00am 7.5ft 14s 4
mph
1020.5mb 50f 47f
8:00am 8ft 10s 11 13 mph 1019.6mb 50f 48f
7:00am 8ft 14s 18 22 mph 1018.5mb 50f 50f
6:00am 8ft 14s 20 22 mph 1017.9mb 50f 51f
5:00am 8.5ft 10s 20 25 mph 1018.2mb 50f 51f
4:00am 8.5ft 10s 18 22 mph 1018mb 50f 51f
3:00am 8ft 10s 22 27 mph 1018.1mb 50f 51f
2:00am 8ft 6s 25 31 mph 1017.7mb 50f 51f
1:00am 8ft 13s 22 29 mph 1018.3mb 50f 50f
12:00am 8ft 12s 22 27 mph 1018.8mb 50f 50f
Thu 01/29 11:00pm 8ft 14s 22 27 mph 1019.2mb 50f 50f
10:00pm 7.5ft 14s 22 29 mph 1019.7mb 50f 51f
9:00pm 8ft 14s 22 27 mph 1019.9mb 50f 50f
8:00pm 8ft 10s 16 18 mph 1020.6mb 50f 50f
7:00pm 8.5ft 10s 16 22 mph 1021.4mb 50f 49f
6:00pm 8.5ft 10s 13 16 mph 1021.8mb 50f 49f
5:00pm 8.5ft 10s 4 7 mph 1022.3mb 50f 50f
4:00pm 9ft 11s 4 7 mph 1022.3mb 50f 50f
3:00pm 8.5ft 10s 9 11 mph 1022.6mb 50f 50f
2:00pm 9ft 10s 13 16 mph 1022.9mb 50f 50f
1:00pm 9.5ft 11s 18 20 mph 1023.3mb 50f 49f
12:00pm 10ft 10s 20 25 mph 1023mb 50f 49f
11:00am 10ft 11s 22 27 mph 1022.9mb 50f 49f
10:00am 10ft 11s 22 27 mph 1022.8mb 50f 49f
9:00am 10.5ft 10s 25 29 mph 1022.2mb 50f 49f
8:00am 11ft 6s 27 31 mph 1021.9mb 50f 49f
7:00am 11ft 7s 27 31 mph 1021.9mb 50f 49f
6:00am 11ft 16s 27 34 mph 1021.8mb 50f 49f
5:00am 11ft 10s 25 29 mph 1022.3mb 50f 49f
4:00am 11.5ft 10s 25 29 mph 1022.5mb 50f 49f
3:00am 12ft 11s 25 31 mph 1022.9mb 50f 49f
2:00am 12ft 11s 25 31 mph 1022.8mb 50f 49f
1:00am 11.5ft 11s 27 34 mph 1022.9mb 50f 49f
12:00am 11ft 11s 25 31 mph 1022.7mb 50f 50f
Wed 01/28 11:00pm 11.5ft 11s 27 34 mph 1022.5mb 50f 50f
10:00pm 11ft 10s 27 34 mph 1022.5mb 50f 50f
9:00pm 12ft 10s 27 34 mph 1022.5mb 50f 50f
8:00pm 10.5ft 10s 25 31 mph 1022.4mb 50f 50f
7:00pm 11ft 7s 27 31 mph 1022.3mb 50f 50f
6:00pm 10.5ft 6s 27 31 mph 1022.3mb 50f 50f
5:00pm 10ft 10s 27 31 mph 1022.4mb 50f 50f
4:00pm 10ft 6s 27 34 mph 1022.5mb 50f 50f
3:00pm 9ft 6s 25 31 mph 1022.5mb 50f 50f
2:00pm 9ft 9s 27 31 mph 1022.6mb 50f 50f
1:00pm 9ft 6s 25 29 mph 1022.9mb 50f 50f
12:00pm 8ft 6s 22 27 mph 1023.2mb 50f 50f
11:00am 7.5ft 6s 25 29 mph 1023.2mb 50f 50f
10:00am 7.5ft 18s 25 29 mph 1022.9mb 50f 50f
9:00am 7ft 6s 25 29 mph 1022.7mb 50f 50f
8:00am 6.5ft 5s 22 27 mph 1022.7mb 50f 50f
7:00am 6ft 5s 22 27 mph 1022.6mb 50f 50f